Time;durP1;ratioP1;P1;durP2;ratioP2;P2;SDS_P1;SDS_P2;PMS_P1;PMS_P2;Temp;Humidity;BMP_temperature;BMP_pressure;BME280_temperature;BME280_humidity;BME280_pressure;Samples;Min_cycle;Max_cycle;Signal;HPM_P1;HPM_P2
2021/12/04 00:00:09;;;;;;;18.17;12.27;;;;;;;0.43;90.25;98751.59;5029506;28;20179;-81
2021/12/04 00:02:35;;;;;;;17.88;11.10;;;;;;;0.46;90.27;98745.56;5029823;28;20046;-81
2021/12/04 00:05:02;;;;;;;16.48;10.90;;;;;;;0.46;89.85;98733.63;5029732;28;20528;-81
2021/12/04 00:07:30;;;;;;;18.65;11.25;;;;;;;0.48;89.46;98723.34;5030051;28;20408;-82
2021/12/04 00:10:00;;;;;;;17.65;10.88;;;;;;;0.52;89.64;98727.53;5029116;28;20041;-81
2021/12/04 00:12:26;;;;;;;17.83;10.37;;;;;;;0.51;89.66;98718.16;5012876;28;20030;-81
2021/12/04 00:14:52;;;;;;;15.95;10.30;;;;;;;0.50;89.69;98717.28;5013379;28;20359;-81
2021/12/04 00:17:19;;;;;;;17.63;10.35;;;;;;;0.53;89.37;98715.53;5029804;28;20459;-80
2021/12/04 00:19:44;;;;;;;14.60;10.23;;;;;;;0.55;89.27;98713.78;5013015;28;20396;-80
2021/12/04 00:22:09;;;;;;;13.75;9.38;;;;;;;0.56;89.36;98715.50;5012664;28;20034;-80
2021/12/04 00:24:35;;;;;;;13.88;9.30;;;;;;;0.58;89.19;98717.13;5012865;28;20029;-81
2021/12/04 00:27:01;;;;;;;15.80;10.02;;;;;;;0.60;88.98;98714.56;5029070;28;20029;-84
2021/12/04 00:29:26;;;;;;;16.88;10.40;;;;;;;0.52;89.05;98696.78;5029277;28;20029;-79
2021/12/04 00:32:02;;;;;;;17.05;10.57;;;;;;;0.65;88.79;98720.41;5047135;28;20451;-79
2021/12/04 00:34:29;;;;;;;16.33;9.88;;;;;;;0.64;87.88;98719.56;5051814;28;20017;-78
2021/12/04 00:50:16;;;;;;;13.90;9.48;;;;;;;0.72;87.81;98691.22;5051332;28;20068;-79
2021/12/04 00:52:41;;;;;;;14.65;9.30;;;;;;;0.65;87.27;98681.97;5051208;28;20116;-79
2021/12/04 00:55:07;;;;;;;15.00;9.85;;;;;;;0.77;87.58;98693.69;5049907;28;20370;-79
2021/12/04 00:57:33;;;;;;;11.50;8.98;;;;;;;0.73;87.79;98691.19;5051721;28;20033;-79
2021/12/04 00:59:59;;;;;;;10.77;8.07;;;;;;;0.75;88.09;98693.69;5051386;28;20021;-79
2021/12/04 01:02:25;;;;;;;13.70;9.00;;;;;;;0.75;87.77;98683.44;5051471;28;20039;-79
2021/12/04 01:04:51;;;;;;;12.75;8.63;;;;;;;0.71;87.32;98671.56;5050247;28;20107;-79
2021/12/04 01:07:17;;;;;;;12.50;9.25;;;;;;;0.79;87.46;98685.06;5051287;28;20138;-79
2021/12/04 01:09:43;;;;;;;11.70;8.48;;;;;;;0.80;86.34;98666.25;5051363;28;20040;-79
2021/12/04 01:12:09;;;;;;;11.48;7.53;;;;;;;0.86;86.11;98670.41;5051071;28;20025;-79
2021/12/04 01:14:35;;;;;;;12.00;8.05;;;;;;;0.81;86.61;98661.97;5051370;28;20100;-79
2021/12/04 01:17:00;;;;;;;11.15;7.90;;;;;;;0.82;86.47;98654.25;5050940;28;20434;-79
2021/12/04 01:19:29;;;;;;;12.35;7.75;;;;;;;0.85;86.41;98654.19;5051415;28;20033;-79
2021/12/04 01:21:54;;;;;;;13.75;8.73;;;;;;;0.94;86.35;98661.66;5050121;28;20518;-79
2021/12/04 01:24:21;;;;;;;13.43;8.30;;;;;;;0.88;85.94;98653.25;5051638;28;20033;-79
2021/12/04 01:26:47;;;;;;;14.45;7.90;;;;;;;0.87;86.07;98634.47;5053939;28;20021;-79
2021/12/04 01:29:14;;;;;;;13.88;8.68;;;;;;;1.02;85.96;98656.34;5053775;28;20391;-79
2021/12/04 01:31:40;;;;;;;13.93;8.30;;;;;;;1.01;85.80;98649.50;5053835;28;20025;-79
2021/12/04 01:34:05;;;;;;;12.35;7.75;;;;;;;1.02;85.56;98650.38;5054913;28;20139;-78
2021/12/04 01:36:31;;;;;;;11.80;8.50;;;;;;;1.00;85.43;98643.53;5055367;28;20032;-78
2021/12/04 01:38:57;;;;;;;11.23;7.88;;;;;;;1.06;85.62;98646.88;5055034;28;20469;-79
2021/12/04 01:41:22;;;;;;;10.90;7.40;;;;;;;0.96;86.08;98620.56;5032435;28;20049;-79
2021/12/04 01:43:47;;;;;;;10.57;7.93;;;;;;;1.04;85.73;98639.19;5015848;28;20116;-79
2021/12/04 01:46:13;;;;;;;13.38;8.68;;;;;;;0.99;85.47;98633.34;5032642;28;20044;-79
2021/12/04 01:48:38;;;;;;;9.80;7.70;;;;;;;1.02;84.86;98625.56;5032527;28;20086;-80
2021/12/04 01:51:04;;;;;;;11.57;7.88;;;;;;;1.05;85.00;98634.91;5032397;28;20099;-79
2021/12/04 01:53:29;;;;;;;12.77;8.65;;;;;;;0.98;84.73;98616.28;5032509;28;20463;-79
2021/12/04 01:55:57;;;;;;;11.52;8.07;;;;;;;0.99;84.29;98623.91;5015708;28;20049;-79
2021/12/04 01:58:25;;;;;;;12.65;8.20;;;;;;;1.08;84.14;98627.97;5032441;28;20155;-79
2021/12/04 02:00:51;;;;;;;10.35;7.20;;;;;;;1.08;84.28;98625.41;5015814;28;20531;-79
2021/12/04 02:03:18;;;;;;;13.18;8.45;;;;;;;1.08;84.35;98617.72;5032254;28;20128;-79
2021/12/04 02:05:44;;;;;;;9.63;7.45;;;;;;;1.05;84.85;98614.38;5015838;28;20061;-80
2021/12/04 02:08:14;;;;;;;12.73;7.30;;;;;;;1.09;84.56;98621.97;5015321;28;20038;-80
2021/12/04 02:10:41;;;;;;;13.43;8.40;;;;;;;1.11;83.96;98621.94;5015374;28;20091;-80
2021/12/04 02:13:08;;;;;;;10.65;7.13;;;;;;;1.14;83.93;98621.88;5049920;28;20036;-80
2021/12/04 02:15:33;;;;;;;11.65;7.60;;;;;;;0.99;84.08;98584.63;5053095;28;20036;-79
2021/12/04 02:17:59;;;;;;;11.43;7.78;;;;;;;1.09;84.03;98606.56;5053090;28;20029;-80
2021/12/04 02:20:28;;;;;;;12.50;7.93;;;;;;;1.03;84.14;98588.78;5053183;28;20033;-79
2021/12/04 02:22:54;;;;;;;11.30;7.32;;;;;;;1.09;83.93;98598.03;5031685;28;20451;-79
2021/12/04 02:25:20;;;;;;;8.63;6.72;;;;;;;1.13;83.80;98604.78;5031863;28;20041;-79
2021/12/04 02:27:46;;;;;;;12.15;7.50;;;;;;;1.09;83.34;98600.59;5014898;28;20045;-79
2021/12/04 02:30:19;;;;;;;10.57;7.22;;;;;;;1.08;83.25;98591.25;5031740;28;20461;-79
2021/12/04 02:32:46;;;;;;;8.13;6.68;;;;;;;1.01;83.28;98570.03;5015035;28;20116;-79
2021/12/04 02:35:14;;;;;;;10.35;6.82;;;;;;;1.18;83.13;98590.09;5031181;28;20041;-79
2021/12/04 02:37:39;;;;;;;10.77;7.85;;;;;;;1.17;83.24;98583.31;5015089;28;20433;-79
2021/12/04 02:40:08;;;;;;;8.30;6.57;;;;;;;1.12;82.93;98574.91;5031190;28;20033;-79
2021/12/04 02:42:33;;;;;;;9.45;7.65;;;;;;;1.17;82.98;98568.75;5031384;28;20477;-79
2021/12/04 02:45:00;;;;;;;11.48;7.78;;;;;;;1.18;82.90;98572.16;5031382;28;20037;-79
2021/12/04 02:47:27;;;;;;;10.75;7.28;;;;;;;1.20;82.35;98571.25;5031391;28;20033;-79
2021/12/04 02:49:53;;;;;;;10.77;6.82;;;;;;;1.23;82.41;98562.66;5031274;28;20397;-79
2021/12/04 02:52:19;;;;;;;8.93;7.07;;;;;;;1.17;82.39;98555.94;5031137;28;20033;-79
2021/12/04 02:54:45;;;;;;;9.85;7.15;;;;;;;1.21;82.81;98566.97;5031180;28;20053;-79
2021/12/04 02:57:12;;;;;;;10.95;7.22;;;;;;;1.06;82.73;98537.44;5031012;28;20160;-79
2021/12/04 02:59:39;;;;;;;9.57;6.70;;;;;;;1.21;82.73;98559.25;5036172;28;20094;-79
2021/12/04 03:02:06;;;;;;;8.27;6.03;;;;;;;1.11;82.65;98533.03;5052235;28;20059;-79
2021/12/04 03:04:32;;;;;;;10.77;6.50;;;;;;;1.21;82.56;98552.41;5052138;28;20037;-79
2021/12/04 03:06:57;;;;;;;8.30;6.00;;;;;;;1.22;81.92;98550.69;5051926;28;20032;-79
2021/12/04 03:09:23;;;;;;;11.13;6.88;;;;;;;1.23;81.85;98550.66;5053146;28;20056;-80
2021/12/04 03:11:49;;;;;;;8.52;6.40;;;;;;;1.23;82.27;98547.25;5052070;28;20028;-79
2021/12/04 03:14:14;;;;;;;8.95;6.30;;;;;;;1.23;82.43;98550.66;5053398;28;20029;-79
2021/12/04 03:16:41;;;;;;;10.07;5.97;;;;;;;1.14;82.27;98534.69;5053424;28;20063;-79
2021/12/04 03:19:07;;;;;;;7.45;5.82;;;;;;;1.23;82.33;98537.00;5052048;28;20495;-79
2021/12/04 03:21:35;;;;;;;13.27;7.43;;;;;;;1.21;81.90;98534.44;5052117;28;20021;-79
2021/12/04 03:24:06;;;;;;;9.40;6.07;;;;;;;1.20;81.77;98522.53;5052860;28;20033;-79
2021/12/04 03:26:31;;;;;;;;;;;;;;;1.28;81.70;98535.13;5053669;28;20031;-80
2021/12/04 03:29:00;;;;;;;10.73;6.85;;;;;;;1.25;81.65;98532.66;5052966;28;19909;-79
2021/12/04 03:42:22;;;;;;;11.00;7.70;;;;;;;1.18;82.35;98531.13;5053005;28;20618;-79
2021/12/04 03:44:49;;;;;;;9.40;7.68;;;;;;;1.17;82.65;98519.19;5051517;28;20055;-79
2021/12/04 03:47:14;;;;;;;15.93;7.50;;;;;;;1.09;83.09;98506.56;5051828;28;20528;-79
2021/12/04 03:49:40;;;;;;;11.15;7.03;;;;;;;1.15;82.97;98523.53;5052785;28;20116;-79
2021/12/04 03:52:07;;;;;;;8.63;6.88;;;;;;;1.13;83.22;98510.72;5051122;28;20434;-79
2021/12/04 03:54:33;;;;;;;10.60;7.32;;;;;;;1.01;83.12;98505.94;5052685;28;20387;-79
2021/12/04 03:57:04;;;;;;;9.38;6.60;;;;;;;1.13;82.79;98531.25;5051012;28;20043;-79
2021/12/04 03:59:36;;;;;;;11.77;7.00;;;;;;;1.08;83.32;98522.84;5052248;28;20025;-79
2021/12/04 04:02:03;;;;;;;11.88;6.50;;;;;;;1.08;83.15;98514.31;5052091;28;20021;-79
2021/12/04 04:04:28;;;;;;;12.65;7.18;;;;;;;1.10;82.97;98517.69;5051023;28;20020;-79
2021/12/04 04:06:54;;;;;;;9.43;6.88;;;;;;;1.10;82.97;98515.97;5052265;28;20094;-79
2021/12/04 04:09:19;;;;;;;11.65;7.47;;;;;;;1.01;82.95;98503.34;5052143;28;20499;-79
2021/12/04 04:11:47;;;;;;;10.25;6.50;;;;;;;1.05;82.64;98506.69;5051902;28;20045;-79
2021/12/04 04:14:12;;;;;;;10.20;7.20;;;;;;;1.12;82.78;98508.22;5052217;28;20028;-79
2021/12/04 04:16:39;;;;;;;10.88;7.07;;;;;;;1.12;83.04;98511.63;5051103;28;20392;-79
2021/12/04 04:19:06;;;;;;;8.88;6.40;;;;;;;1.04;82.99;98492.19;5050520;28;20032;-79
2021/12/04 04:21:31;;;;;;;10.95;6.70;;;;;;;1.06;83.32;98500.72;5052190;28;20029;-79
2021/12/04 04:23:57;;;;;;;11.30;7.15;;;;;;;1.09;82.91;98500.59;5051758;28;20048;-79
2021/12/04 04:26:22;;;;;;;9.73;6.85;;;;;;;1.11;82.83;98497.13;5051800;28;20025;-79
2021/12/04 04:28:48;;;;;;;10.07;7.55;;;;;;;1.04;82.68;98475.09;5052601;28;20091;-79
2021/12/04 04:31:14;;;;;;;9.50;6.75;;;;;;;1.15;83.14;98500.44;5028978;28;20048;-79
2021/12/04 04:33:43;;;;;;;12.38;6.85;;;;;;;1.19;82.90;98497.75;5029058;28;20037;-79
2021/12/04 04:36:49;;;;;;;10.00;7.38;;;;;;;1.16;82.56;98486.75;5028957;28;20041;-78
2021/12/04 04:58:16;;;;;;;12.60;7.43;;;;;;;0.99;81.69;98446.16;5028900;28;20520;-79
2021/12/04 05:11:41;;;;;;;10.15;6.88;;;;;;;1.18;81.42;98455.06;5051378;28;20138;-79
2021/12/04 05:14:07;;;;;;;9.50;6.20;;;;;;;1.15;79.68;98447.44;5050196;28;20027;-79
2021/12/04 05:16:50;;;;;;;7.88;5.85;;;;;;;1.22;79.98;98443.81;5051404;28;20032;-79
2021/12/04 05:19:26;;;;;;;9.48;6.00;;;;;;;1.28;79.62;98453.06;5050161;28;20068;-79
2021/12/04 05:21:53;;;;;;;9.35;6.55;;;;;;;1.35;80.05;98467.41;5051625;28;20052;-79
2021/12/04 05:24:19;;;;;;;7.70;5.95;;;;;;;1.29;79.22;98449.59;5051218;28;20025;-79
2021/12/04 05:26:44;;;;;;;10.18;6.80;;;;;;;1.24;78.92;98439.47;5051294;28;20033;-79
2021/12/04 05:29:10;;;;;;;9.68;6.60;;;;;;;1.41;79.03;98461.25;5051379;28;20086;-79
2021/12/04 05:31:35;;;;;;;7.82;6.50;;;;;;;1.43;78.93;98457.78;5049997;28;20028;-79
2021/12/04 05:34:00;;;;;;;8.07;5.93;;;;;;;1.38;78.57;98448.50;5049773;28;20036;-79
2021/12/04 05:36:26;;;;;;;8.77;5.57;;;;;;;1.44;78.59;98461.16;5051464;28;20037;-79
2021/12/04 05:38:52;;;;;;;11.10;6.57;;;;;;;1.44;78.39;98459.44;5051237;28;20029;-79
2021/12/04 05:41:18;;;;;;;11.10;7.15;;;;;;;1.44;78.36;98453.47;5050775;28;20434;-79
2021/12/04 05:43:44;;;;;;;9.40;6.72;;;;;;;1.47;78.59;98466.19;5051139;28;20033;-79
2021/12/04 05:46:14;;;;;;;11.10;6.85;;;;;;;1.47;78.27;98461.91;5051024;28;20111;-79
2021/12/04 05:56:17;;;;;;;8.77;5.82;;;;;;;1.38;78.15;98446.78;5050798;28;20064;-79
2021/12/04 05:58:42;;;;;;;9.43;6.68;;;;;;;1.50;78.30;98454.13;5051047;28;20060;-79
2021/12/04 06:01:08;;;;;;;8.80;6.15;;;;;;;1.42;79.06;98443.22;5049641;28;20492;-79
2021/12/04 06:03:34;;;;;;;10.35;6.93;;;;;;;1.54;78.59;98467.69;5049798;28;20484;-79
2021/12/04 06:06:00;;;;;;;10.90;7.10;;;;;;;1.50;78.31;98463.53;5049458;28;20033;-79
2021/12/04 06:08:26;;;;;;;12.65;7.40;;;;;;;1.49;78.57;98447.31;5050882;28;20025;-80
2021/12/04 06:10:52;;;;;;;9.85;6.60;;;;;;;1.53;78.34;98457.50;5051882;28;20504;-80
2021/12/04 06:13:17;;;;;;;12.65;6.65;;;;;;;1.43;78.55;98444.94;5054409;28;20114;-81
2021/12/04 06:15:43;;;;;;;10.68;6.75;;;;;;;1.51;78.66;98449.81;5054856;28;20076;-80
2021/12/04 06:18:09;;;;;;;10.63;6.60;;;;;;;1.54;78.79;98454.88;5054507;28;20460;-80
2021/12/04 06:23:39;;;;;;;9.95;6.70;;;;;;;1.58;78.32;98448.75;4992808;28;20034;-80
2021/12/04 06:26:09;;;;;;;10.45;7.25;;;;;;;1.54;78.17;98443.78;4992272;28;20185;-80
2021/12/04 06:28:34;;;;;;;10.10;7.10;;;;;;;1.59;78.37;98441.91;4992731;28;20041;-81
2021/12/04 06:31:00;;;;;;;10.10;6.93;;;;;;;1.43;78.26;98415.84;4992313;28;20031;-79
2021/12/04 06:33:26;;;;;;;8.95;6.32;;;;;;;1.57;77.77;98436.81;4992247;28;20042;-79
2021/12/04 06:35:52;;;;;;;8.70;6.25;;;;;;;1.60;77.95;98435.88;4992398;28;20529;-80
2021/12/04 06:38:19;;;;;;;9.57;6.70;;;;;;;1.49;77.69;98429.34;4992031;28;20596;-79
2021/12/04 06:40:46;;;;;;;9.68;5.65;;;;;;;1.53;77.68;98439.53;4992572;28;20125;-80
2021/12/04 06:43:12;;;;;;;10.32;6.72;;;;;;;1.45;78.15;98427.75;4975611;28;20425;-80
2021/12/04 06:45:42;;;;;;;12.90;8.10;;;;;;;1.50;77.92;98437.88;4975992;28;20042;-79
2021/12/04 06:48:18;;;;;;;17.02;11.27;;;;;;;1.52;77.91;98433.56;4991935;28;20077;-78
2021/12/04 06:50:48;;;;;;;9.18;6.57;;;;;;;1.53;77.76;98435.25;4975813;28;20033;-79
2021/12/04 06:53:28;;;;;;;10.27;6.67;;;;;;;1.49;77.88;98438.78;4992966;28;20511;-79
2021/12/04 06:55:55;;;;;;;15.10;9.40;;;;;;;1.46;77.64;98439.69;5053738;28;20428;-79
2021/12/04 06:58:23;;;;;;;16.17;9.18;;;;;;;1.39;77.88;98433.09;5053348;28;20021;-78
2021/12/04 07:00:49;;;;;;;10.68;7.10;;;;;;;1.40;78.30;98428.78;5053958;28;20358;-78
2021/12/04 07:03:15;;;;;;;12.18;8.27;;;;;;;1.30;77.94;98417.09;5053463;28;20032;-78
2021/12/04 07:05:40;;;;;;;10.10;7.10;;;;;;;1.30;78.05;98424.78;5053846;28;20521;-78
2021/12/04 07:08:06;;;;;;;11.65;7.07;;;;;;;1.34;78.24;98426.38;5053313;28;20025;-77
2021/12/04 07:10:33;;;;;;;11.95;8.40;;;;;;;1.35;78.12;98428.94;5053451;28;20053;-78
2021/12/04 07:13:00;;;;;;;12.82;7.60;;;;;;;1.37;78.22;98434.84;5051722;28;20029;-79
2021/12/04 07:15:31;;;;;;;10.13;6.55;;;;;;;1.41;78.60;98440.72;5053226;28;20455;-77
2021/12/04 07:17:57;;;;;;;13.80;7.50;;;;;;;1.31;78.76;98413.66;5053115;28;20500;-78
2021/12/04 07:20:23;;;;;;;12.25;6.70;;;;;;;1.36;78.70;98425.47;5053429;28;20107;-78
2021/12/04 07:22:49;;;;;;;11.43;6.07;;;;;;;1.30;78.99;98414.53;5029589;28;20639;-78
2021/12/04 07:25:14;;;;;;;10.18;6.43;;;;;;;1.27;79.05;98402.66;5030510;28;20045;-78
2021/12/04 07:27:39;;;;;;;9.55;7.07;;;;;;;1.40;79.24;98424.50;5030358;28;20044;-78
2021/12/04 07:30:06;;;;;;;15.20;7.43;;;;;;;1.39;78.81;98420.25;5030594;28;20365;-79
2021/12/04 07:32:32;;;;;;;12.88;7.03;;;;;;;1.46;79.23;98428.59;5030570;28;20408;-79
2021/12/04 07:34:57;;;;;;;11.90;7.47;;;;;;;1.47;78.96;98420.00;5015637;28;20037;-77
2021/12/04 07:37:23;;;;;;;16.75;8.57;;;;;;;1.48;78.25;98426.84;5050318;28;20119;-79
2021/12/04 07:39:49;;;;;;;13.73;8.77;;;;;;;1.45;78.55;98417.50;5050597;28;20028;-78
2021/12/04 07:42:14;;;;;;;15.65;7.97;;;;;;;1.48;78.37;98426.84;5050061;28;20045;-80
2021/12/04 07:44:40;;;;;;;11.57;8.40;;;;;;;1.41;78.30;98415.91;5050200;28;20029;-80
2021/12/04 07:47:05;;;;;;;13.95;7.78;;;;;;;1.39;78.61;98404.00;5050229;28;20118;-80
2021/12/04 07:49:31;;;;;;;11.68;7.43;;;;;;;1.50;78.55;98420.75;5033369;28;20029;-79
2021/12/04 07:51:56;;;;;;;10.65;6.70;;;;;;;1.49;78.57;98413.13;5049852;28;20543;-80
2021/12/04 07:54:22;;;;;;;11.43;6.63;;;;;;;1.62;78.50;98429.00;5060421;28;20487;-80
2021/12/04 07:56:47;;;;;;;12.80;6.95;;;;;;;1.66;78.07;98438.28;5072465;28;20033;-79
2021/12/04 07:59:12;;;;;;;13.50;7.13;;;;;;;1.69;78.38;98433.06;5072809;28;20227;-80
2021/12/04 08:01:38;;;;;;;10.15;6.53;;;;;;;1.71;78.00;98433.84;5071321;28;20032;-79
2021/12/04 08:04:04;;;;;;;11.10;7.57;;;;;;;1.70;77.65;98424.47;5072186;28;20043;-81
2021/12/04 08:06:33;;;;;;;9.73;6.57;;;;;;;1.69;77.65;98428.75;5072277;28;20028;-78
2021/12/04 08:08:59;;;;;;;15.43;9.40;;;;;;;1.70;77.87;98430.44;5072201;28;20078;-79
2021/12/04 08:11:27;;;;;;;13.40;8.95;;;;;;;1.70;78.36;98433.00;5055222;28;20048;-78
2021/12/04 08:13:53;;;;;;;25.67;15.88;;;;;;;1.66;78.04;98417.75;5034656;28;20025;-79
2021/12/04 08:16:24;;;;;;;31.73;18.98;;;;;;;1.63;78.14;98408.41;5052376;28;20582;-79
2021/12/04 08:18:49;;;;;;;;;;;;;;;1.78;78.31;98424.25;5052874;28;20108;-79
2021/12/04 08:21:14;;;;;;;14.60;9.40;;;;;;;1.73;77.82;98416.69;5051832;28;20003;-79
2021/12/04 08:23:40;;;;;;;18.30;11.77;;;;;;;1.79;78.00;98416.47;5034254;28;20384;-79
2021/12/04 08:26:05;;;;;;;23.70;14.68;;;;;;;1.76;77.57;98416.56;5051713;28;20104;-79
2021/12/04 08:28:30;;;;;;;13.75;9.50;;;;;;;1.84;77.92;98426.59;5052135;28;20025;-79
2021/12/04 08:30:56;;;;;;;11.77;7.90;;;;;;;1.80;78.00;98418.16;5034183;28;20390;-79
2021/12/04 08:33:21;;;;;;;16.77;11.05;;;;;;;1.78;77.62;98416.53;5051394;28;20106;-79
2021/12/04 08:35:47;;;;;;;14.02;7.80;;;;;;;1.89;77.71;98432.44;5052092;28;20021;-79
2021/12/04 08:38:14;;;;;;;11.95;9.77;;;;;;;1.85;77.82;98416.28;5051681;28;20032;-79
2021/12/04 08:40:40;;;;;;;13.27;9.50;;;;;;;1.83;77.64;98435.19;5034014;28;20444;-79
2021/12/04 08:43:07;;;;;;;14.30;10.00;;;;;;;1.68;77.60;98408.25;5051900;28;20174;-79
2021/12/04 08:45:33;;;;;;;14.38;10.15;;;;;;;1.71;77.53;98411.56;5051918;28;20116;-81
2021/12/04 08:47:58;;;;;;;15.63;9.70;;;;;;;1.72;78.11;98404.72;5034097;28;20032;-79
2021/12/04 08:50:27;;;;;;;14.40;8.70;;;;;;;1.86;78.13;98427.41;5051709;28;20055;-79
2021/12/04 08:52:54;;;;;;;13.73;9.13;;;;;;;1.82;77.76;98413.81;5051740;28;20029;-79
2021/12/04 08:55:21;;;;;;;12.35;8.57;;;;;;;1.88;77.77;98430.75;5024565;28;20551;-79
2021/12/04 08:57:48;;;;;;;25.38;18.90;;;;;;;1.86;77.55;98422.28;5047102;28;20032;-79
2021/12/04 09:00:39;;;;;;;28.20;19.50;;;;;;;1.85;77.65;98416.28;5033742;28;20023;-80
2021/12/04 09:03:07;;;;;;;18.15;14.18;;;;;;;1.94;77.91;98413.44;5019982;28;20064;-79
2021/12/04 09:05:33;;;;;;;13.27;9.05;;;;;;;2.08;77.78;98422.44;5033504;28;20021;-80
2021/12/04 09:07:59;;;;;;;14.00;9.77;;;;;;;2.09;77.11;98411.25;5051658;28;20028;-78
2021/12/04 09:10:24;;;;;;;17.80;9.68;;;;;;;2.16;76.74;98412.75;5051297;28;20045;-79
2021/12/04 09:12:51;;;;;;;18.13;11.50;;;;;;;2.10;76.39;98387.25;5017687;28;20025;-79
2021/12/04 09:15:24;;;;;;;17.00;10.35;;;;;;;2.28;76.28;98404.66;5031517;28;20056;-78
2021/12/04 09:17:50;;;;;;;14.73;8.65;;;;;;;2.41;76.14;98402.50;5031649;28;20036;-77
2021/12/04 09:20:16;;;;;;;13.70;8.77;;;;;;;2.42;75.27;98387.03;5031352;28;20383;-77
2021/12/04 09:22:44;;;;;;;13.18;9.60;;;;;;;2.44;75.10;98389.53;5031928;28;20655;-79
2021/12/04 09:25:14;;;;;;;13.13;8.15;;;;;;;2.54;75.01;98395.22;5031643;28;20372;-78
2021/12/04 10:16:42;;;;;;;16.27;10.23;;;;;;;2.72;73.64;98320.03;5072388;28;20043;-79
2021/12/04 10:19:22;;;;;;;19.33;9.80;;;;;;;2.72;73.45;98320.84;5072180;28;20474;-79
2021/12/04 10:32:23;;;;;;;21.70;11.60;;;;;;;2.68;71.27;98321.03;5074488;28;20388;-78
2021/12/04 10:33:20;;;;;;;26.42;15.32;;;;;;;2.58;71.68;98306.84;5074219;28;20059;-79
2021/12/04 10:35:47;;;;;;;19.75;11.23;;;;;;;2.70;70.55;98322.66;5073143;28;20051;-79
2021/12/04 10:38:20;;;;;;;17.33;10.82;;;;;;;2.69;70.36;98317.56;5074179;28;20027;-80
2021/12/04 10:40:48;;;;;;;20.30;11.52;;;;;;;2.60;70.67;98305.88;5074327;28;20043;-79
2021/12/04 10:43:20;;;;;;;16.35;10.07;;;;;;;2.67;70.45;98324.50;5074074;28;20036;-80
2021/12/04 10:45:51;;;;;;;20.83;11.20;;;;;;;2.68;70.53;98323.59;5072788;28;20029;-80
2021/12/04 10:48:21;;;;;;;22.50;10.68;;;;;;;2.74;70.37;98331.09;5072596;28;20530;-80
2021/12/04 10:51:08;;;;;;;25.00;12.32;;;;;;;2.73;70.26;98324.25;5072836;28;20047;-80
2021/12/04 10:53:38;;;;;;;17.48;10.23;;;;;;;2.72;70.10;98318.28;5073941;28;20445;-80
2021/12/04 11:03:56;;;;;;;20.17;11.57;;;;;;;2.75;70.67;98307.06;5059436;28;20047;-79
2021/12/04 11:43:56;;;;;;;25.30;12.38;;;;;;;2.71;65.34;98272.91;5033097;28;20041;-79
2021/12/04 11:46:40;;;;;;;29.20;16.05;;;;;;;2.57;65.31;98248.59;5033074;28;20022;-80
2021/12/04 11:49:17;;;;;;;38.00;17.75;;;;;;;2.61;64.66;98256.16;5015160;28;20394;-80
2021/12/04 11:51:54;;;;;;;22.75;11.30;;;;;;;2.60;64.96;98245.91;5015265;28;20037;-79
2021/12/04 11:54:20;;;;;;;17.23;9.98;;;;;;;2.65;65.56;98238.88;5032621;28;20037;-79
2021/12/04 11:57:01;;;;;;;12.40;7.93;;;;;;;2.67;65.40;98249.94;5035773;28;20416;-79
2021/12/04 11:59:28;;;;;;;15.05;8.75;;;;;;;2.75;65.70;98258.22;5031386;28;20029;-80
2021/12/04 12:01:59;;;;;;;16.23;9.45;;;;;;;2.73;65.87;98247.13;5031553;28;20045;-80
2021/12/04 12:04:35;;;;;;;15.45;9.70;;;;;;;2.73;65.43;98242.00;5032566;28;20036;-79
2021/12/04 12:07:17;;;;;;;14.52;8.48;;;;;;;2.75;65.42;98240.22;5031438;28;20037;-80
2021/12/04 12:09:42;;;;;;;13.15;8.02;;;;;;;2.75;65.88;98237.66;5031830;28;20492;-81
2021/12/04 12:12:12;;;;;;;15.05;9.05;;;;;;;2.78;66.03;98232.38;5052213;28;20028;-80
2021/12/04 12:14:51;;;;;;;24.73;15.35;;;;;;;2.74;66.51;98235.97;5052542;28;20134;-79
2021/12/04 12:17:33;;;;;;;25.17;15.60;;;;;;;2.72;66.79;98228.31;5052196;28;20017;-79
2021/12/04 12:20:00;;;;;;;18.00;10.57;;;;;;;2.71;66.94;98236.91;5052498;28;20025;-79
2021/12/04 12:25:40;;;;;;;45.85;25.67;;;;;;;2.67;67.53;98204.50;5052348;28;20037;-79
2021/12/04 12:33:55;;;;;;;18.73;13.75;;;;;;;2.62;68.65;98185.84;5052204;28;20511;-79
2021/12/04 12:36:22;;;;;;;20.67;12.20;;;;;;;2.72;68.95;98205.16;5050891;28;20462;-79
2021/12/04 12:38:57;;;;;;;19.63;11.45;;;;;;;2.71;69.27;98198.34;5029625;28;20120;-79
2021/12/04 12:41:51;;;;;;;24.65;11.73;;;;;;;2.73;69.59;98191.41;5029485;28;20041;-79
2021/12/04 12:44:24;;;;;;;39.20;20.92;;;;;;;2.76;69.81;98187.91;5029580;28;20033;-79
2021/12/04 12:46:56;;;;;;;33.85;23.88;;;;;;;2.82;70.07;98200.50;5013083;28;20029;-79
2021/12/04 12:49:39;;;;;;;63.78;36.72;;;;;;;2.83;70.33;98203.94;5029632;28;20049;-79
2021/12/04 12:52:21;;;;;;;54.40;29.17;;;;;;;2.79;70.58;98199.81;5029450;28;20092;-80
2021/12/04 12:54:57;;;;;;;28.45;16.63;;;;;;;2.76;70.76;98200.75;5029254;28;20072;-80
2021/12/04 12:57:30;;;;;;;43.92;22.23;;;;;;;2.68;71.13;98183.03;5012718;28;20405;-80
2021/12/04 13:14:13;;;;;;;25.75;13.32;;;;;;;2.66;71.36;98196.88;5031753;28;20144;-79
2021/12/04 13:16:42;;;;;;;25.05;14.05;;;;;;;2.55;72.00;98179.28;4989682;28;20042;-80
2021/12/04 13:19:12;;;;;;;29.27;15.65;;;;;;;2.53;71.87;98185.34;4983285;28;20037;-80
2021/12/04 13:21:40;;;;;;;48.80;24.98;;;;;;;2.47;72.58;98168.44;5013325;28;20041;-80
2021/12/04 13:24:10;;;;;;;47.58;23.45;;;;;;;2.53;72.54;98181.06;5013364;28;20048;-80
2021/12/04 13:26:37;;;;;;;41.35;22.60;;;;;;;2.47;72.87;98182.13;5013376;28;20033;-80
2021/12/04 13:29:05;;;;;;;27.27;15.85;;;;;;;2.37;72.60;98174.81;5013812;28;20096;-80
2021/12/04 13:31:33;;;;;;;44.33;22.92;;;;;;;2.33;72.41;98171.53;5013264;28;20089;-80
2021/12/04 13:33:58;;;;;;;59.72;30.15;;;;;;;2.26;72.56;98164.94;4996781;28;20030;-80
2021/12/04 13:36:29;;;;;;;82.97;44.03;;;;;;;2.38;72.69;98181.63;5012934;28;20116;-80
2021/12/04 13:39:06;;;;;;;54.33;30.10;;;;;;;2.39;73.07;98179.00;5013606;28;20080;-80
2021/12/04 13:41:33;;;;;;;40.53;22.35;;;;;;;2.38;72.62;98177.31;5012785;28;20085;-80
2021/12/04 13:44:01;;;;;;;23.95;15.20;;;;;;;2.30;72.32;98156.22;5013204;28;20026;-79
2021/12/04 13:46:27;;;;;;;26.70;15.55;;;;;;;2.34;72.15;98164.66;5012740;28;20066;-79
2021/12/04 13:49:00;;;;;;;24.98;14.50;;;;;;;2.32;72.16;98166.44;5012994;28;20065;-80
2021/12/04 13:51:25;;;;;;;30.35;18.17;;;;;;;2.29;72.23;98164.00;5012861;28;20080;-79
2021/12/04 13:54:11;;;;;;;35.20;19.17;;;;;;;2.25;72.05;98161.53;5043282;28;20636;-80
2021/12/04 13:56:36;;;;;;;38.83;20.23;;;;;;;2.23;72.65;98175.31;5053015;28;20045;-80
2021/12/04 13:59:06;;;;;;;49.47;28.52;;;;;;;2.04;71.95;98152.03;5052641;28;20116;-80
2021/12/04 14:01:41;;;;;;;41.15;23.70;;;;;;;2.02;72.17;98152.97;5049454;28;20100;-80
2021/12/04 14:04:11;;;;;;;54.33;28.05;;;;;;;2.03;72.11;98158.06;5052458;28;20053;-80
2021/12/04 14:06:36;;;;;;;40.67;23.90;;;;;;;1.89;72.20;98140.56;5035809;28;20459;-80
2021/12/04 14:09:07;;;;;;;47.38;27.85;;;;;;;1.92;72.38;98153.31;5052352;28;20033;-80
2021/12/04 14:11:39;;;;;;;58.03;32.42;;;;;;;1.89;72.29;98166.25;5047857;28;20049;-80
2021/12/04 14:14:20;;;;;;;62.63;30.80;;;;;;;1.85;72.68;98172.38;5044382;28;20522;-79
2021/12/04 14:16:50;;;;;;;;;;;;;;;1.84;72.70;98175.84;5035825;28;20057;-79
2021/12/04 14:19:22;;;;;;;111.45;38.42;;;;;;;1.77;73.47;98179.53;5017482;28;20261;-80
2021/12/04 14:22:03;;;;;;;80.82;35.45;;;;;;;1.67;74.10;98157.63;5035307;28;20033;-80
2021/12/04 14:24:43;;;;;;;222.40;98.55;;;;;;;1.70;73.89;98170.38;5035556;28;20043;-80
2021/12/04 14:27:11;;;;;;;120.75;47.47;;;;;;;1.67;74.41;98170.47;5054664;28;20029;-80
2021/12/04 14:29:41;;;;;;;120.82;39.50;;;;;;;1.62;74.70;98170.63;5054548;28;20033;-80
2021/12/04 14:32:09;;;;;;;81.38;29.42;;;;;;;1.59;74.97;98169.88;5053865;28;20063;-81
2021/12/04 14:34:35;;;;;;;90.68;36.88;;;;;;;1.41;75.12;98146.53;5054461;28;20032;-80
2021/12/04 14:37:12;;;;;;;133.23;50.78;;;;;;;1.48;75.54;98147.19;5054379;28;20048;-80
2021/12/04 14:39:45;;;;;;;65.28;26.42;;;;;;;1.52;75.70;98159.00;5054635;28;20029;-80
2021/12/04 14:42:18;;;;;;;31.42;16.20;;;;;;;1.49;76.03;98161.69;5054244;28;20025;-80
2021/12/04 14:44:56;;;;;;;79.65;28.95;;;;;;;1.46;76.23;98159.19;5054284;28;20025;-80
2021/12/04 14:47:27;;;;;;;119.10;51.53;;;;;;;1.44;76.48;98166.13;5036020;28;20040;-80